createdAt,value
2018-05-01T00:00:02.184Z,59.80
2018-05-01T00:02:30.437Z,59.80
2018-05-01T00:04:59.491Z,59.90
2018-05-01T00:07:27.741Z,59.90
2018-05-01T00:09:56.041Z,59.90
2018-05-01T00:12:24.322Z,59.80
2018-05-01T00:14:52.664Z,59.90
2018-05-01T00:17:21.584Z,60.20
2018-05-01T00:19:49.935Z,60.70
2018-05-01T00:22:18.109Z,61.20
2018-05-01T00:24:46.429Z,61.20
2018-05-01T00:27:14.681Z,61.20
2018-05-01T00:29:42.963Z,61.30
2018-05-01T00:32:11.225Z,61.30
2018-05-01T00:34:39.507Z,61.20
2018-05-01T00:37:07.789Z,61.20
2018-05-01T00:39:36.065Z,61.10
2018-05-01T00:42:04.320Z,61.10
2018-05-01T00:44:32.630Z,61.50
2018-05-01T00:47:00.892Z,61.70
2018-05-01T00:49:29.140Z,62.00
2018-05-01T00:51:57.453Z,61.70
2018-05-01T00:54:25.724Z,61.60
2018-05-01T00:56:53.981Z,61.60
2018-05-01T00:59:22.276Z,61.50
2018-05-01T01:01:50.553Z,61.40
2018-05-01T01:04:18.801Z,61.50
2018-05-01T01:06:47.100Z,61.20
2018-05-01T01:09:15.381Z,60.80
2018-05-01T01:11:43.640Z,61.00
2018-05-01T01:14:11.885Z,60.50
2018-05-01T01:16:40.904Z,59.20
2018-05-01T01:19:09.206Z,59.20
2018-05-01T01:21:37.480Z,58.80
2018-05-01T01:24:05.728Z,58.70
2018-05-01T01:26:33.972Z,59.10
2018-05-01T01:29:03.021Z,59.40
2018-05-01T01:31:31.431Z,58.80
2018-05-01T01:33:59.673Z,58.60
2018-05-01T01:36:27.426Z,58.80
2018-05-01T01:38:55.170Z,58.60
2018-05-01T01:41:22.949Z,58.50
2018-05-01T01:43:50.703Z,58.70
2018-05-01T01:46:18.451Z,58.70
2018-05-01T01:48:46.209Z,58.80
2018-05-01T01:51:14.711Z,59.00
2018-05-01T01:53:42.486Z,59.00
2018-05-01T01:56:10.227Z,59.10
2018-05-01T01:58:38.744Z,59.40
2018-05-01T02:01:06.503Z,59.40
2018-05-01T02:03:34.266Z,59.50
2018-05-01T02:06:02.030Z,59.20
2018-05-01T02:08:29.803Z,59.10
2018-05-01T02:10:57.567Z,59.30
2018-05-01T02:13:25.459Z,59.70
2018-05-01T02:15:53.300Z,60.00
2018-05-01T02:18:21.043Z,60.00
2018-05-01T02:20:48.790Z,60.00
2018-05-01T02:23:17.305Z,60.70
2018-05-01T02:25:45.048Z,60.70
2018-05-01T02:28:12.796Z,61.30
2018-05-01T02:30:41.323Z,61.80
2018-05-01T02:33:09.089Z,61.70
2018-05-01T02:35:36.835Z,61.60
2018-05-01T02:38:04.702Z,61.90
2018-05-01T02:40:32.464Z,62.30
2018-05-01T02:43:00.217Z,62.30
2018-05-01T02:45:27.962Z,62.50
2018-05-01T02:47:56.474Z,62.20
2018-05-01T02:50:24.215Z,62.10
2018-05-01T02:52:51.944Z,62.20
2018-05-01T02:55:19.692Z,62.10
2018-05-01T02:57:47.523Z,62.00
2018-05-01T03:00:15.266Z,62.40
2018-05-01T03:02:43.008Z,61.90
2018-05-01T03:05:11.529Z,63.00
2018-05-01T03:07:39.272Z,62.00
2018-05-01T03:10:07.775Z,62.20
2018-05-01T03:12:35.523Z,62.20
2018-05-01T03:15:04.028Z,62.60
2018-05-01T03:17:31.773Z,62.50
2018-05-01T03:19:59.513Z,62.00
2018-05-01T03:22:27.321Z,62.00
2018-05-01T03:24:55.050Z,62.20
2018-05-01T03:27:23.567Z,62.90
2018-05-01T03:29:51.303Z,62.90
2018-05-01T03:32:19.816Z,63.00
2018-05-01T03:34:47.559Z,63.00
2018-05-01T03:37:15.338Z,62.90
2018-05-01T03:39:43.079Z,63.10
2018-05-01T03:42:11.671Z,63.30
2018-05-01T03:44:39.410Z,63.30
2018-05-01T03:47:07.936Z,63.10
2018-05-01T03:49:36.048Z,63.00
2018-05-01T03:52:03.864Z,62.20
2018-05-01T03:54:31.631Z,61.60
2018-05-01T03:56:59.386Z,60.90
2018-05-01T03:59:27.183Z,60.00
2018-05-01T04:01:55.638Z,59.50
2018-05-01T04:04:23.411Z,59.40
2018-05-01T04:06:51.171Z,59.30
2018-05-01T04:09:18.927Z,59.70
2018-05-01T04:11:46.674Z,59.90
2018-05-01T04:14:14.468Z,60.40
2018-05-01T04:16:42.202Z,60.90
2018-05-01T04:19:09.961Z,61.60
2018-05-01T04:21:38.465Z,62.50
2018-05-01T04:24:06.219Z,62.50
2018-05-01T04:26:33.995Z,62.70
2018-05-01T04:29:01.756Z,62.90
2018-05-01T04:31:29.523Z,63.20
2018-05-01T04:33:57.282Z,63.30
2018-05-01T04:36:25.022Z,63.40
2018-05-01T04:38:53.535Z,63.30
2018-05-01T04:41:21.272Z,63.30
2018-05-01T04:43:49.050Z,63.10
2018-05-01T04:46:16.791Z,62.40
2018-05-01T04:48:45.310Z,59.70
2018-05-01T04:51:13.059Z,59.80
2018-05-01T04:53:40.808Z,59.30
2018-05-01T04:56:08.587Z,59.90
2018-05-01T04:58:36.339Z,60.30
2018-05-01T05:01:04.840Z,61.00
2018-05-01T05:03:32.607Z,60.90
2018-05-01T05:06:00.355Z,60.50
2018-05-01T05:08:28.127Z,59.60
2018-05-01T05:10:55.890Z,59.20
2018-05-01T05:13:23.638Z,58.10
2018-05-01T05:15:51.386Z,57.20
2018-05-01T05:18:20.003Z,56.10
2018-05-01T05:20:47.869Z,56.20
2018-05-01T05:23:15.635Z,55.10
2018-05-01T05:25:43.393Z,54.10
2018-05-01T05:28:11.148Z,50.30
2018-05-01T05:30:38.918Z,46.60
2018-05-01T05:33:06.691Z,44.40
2018-05-01T05:35:34.438Z,45.40
2018-05-01T05:38:02.222Z,47.00
2018-05-01T05:40:30.074Z,48.50
2018-05-01T05:42:57.876Z,48.30
2018-05-01T05:45:25.672Z,48.50
2018-05-01T05:47:54.195Z,45.70
2018-05-01T05:50:21.938Z,45.60
2018-05-01T05:52:49.702Z,45.50
2018-05-01T05:55:17.485Z,45.70
2018-05-01T05:57:45.235Z,44.80
2018-05-01T06:00:12.996Z,43.80
2018-05-01T06:02:40.744Z,44.10
2018-05-01T06:05:09.366Z,44.60
2018-05-01T06:07:37.264Z,44.60
2018-05-01T06:10:05.143Z,43.10
2018-05-01T06:12:33.666Z,42.90
2018-05-01T06:15:01.442Z,43.30
2018-05-01T06:17:29.202Z,43.30
2018-05-01T06:19:56.958Z,45.50
2018-05-01T06:22:24.742Z,45.40
2018-05-01T06:24:52.498Z,44.70
2018-05-01T06:27:20.893Z,45.20
2018-05-01T06:29:48.794Z,44.90
2018-05-01T06:32:16.538Z,44.60
2018-05-01T06:34:44.284Z,44.40
2018-05-01T06:37:12.054Z,43.30
2018-05-01T06:39:39.803Z,42.50
2018-05-01T06:42:07.547Z,42.60
2018-05-01T06:44:35.323Z,43.10
2018-05-01T06:47:03.110Z,43.10
2018-05-01T06:49:30.905Z,43.70
2018-05-01T06:51:58.714Z,44.50
2018-05-01T06:54:26.471Z,44.90
2018-05-01T06:56:54.259Z,44.40
2018-05-01T06:59:22.119Z,44.00
2018-05-01T07:01:49.913Z,43.30
2018-05-01T07:04:17.939Z,42.30
2018-05-01T07:06:46.447Z,42.70
2018-05-01T07:09:14.207Z,42.70
2018-05-01T07:11:41.955Z,44.20
2018-05-01T07:14:09.714Z,45.50
2018-05-01T07:16:37.535Z,45.20
2018-05-01T07:19:05.984Z,45.20
2018-05-01T07:21:33.734Z,45.10
2018-05-01T07:24:01.499Z,43.90
2018-05-01T07:26:29.269Z,44.90
2018-05-01T07:28:57.147Z,44.60
2018-05-01T07:31:25.007Z,45.50
2018-05-01T07:33:52.764Z,45.40
2018-05-01T07:36:20.566Z,43.80
2018-05-01T07:38:48.691Z,43.20
2018-05-01T07:41:17.186Z,42.20
2018-05-01T07:43:44.936Z,42.10
2018-05-01T07:46:12.695Z,42.80
2018-05-01T07:48:40.475Z,42.60
2018-05-01T07:51:08.241Z,43.40
2018-05-01T07:53:36.000Z,44.00
2018-05-01T07:56:03.767Z,45.10
2018-05-01T07:58:31.531Z,47.00
2018-05-01T08:00:59.287Z,47.80
2018-05-01T08:03:27.063Z,47.30
2018-05-01T08:05:54.815Z,47.30
2018-05-01T08:08:22.566Z,48.10
2018-05-01T08:10:50.363Z,47.90
2018-05-01T08:13:18.125Z,47.80
2018-05-01T08:15:45.866Z,46.60
2018-05-01T08:18:13.617Z,46.10
2018-05-01T08:20:41.380Z,46.70
2018-05-01T08:23:09.916Z,47.00
2018-05-01T08:25:37.770Z,47.00
2018-05-01T08:28:05.518Z,45.20
2018-05-01T08:30:33.361Z,45.00
2018-05-01T08:33:01.019Z,44.30
2018-05-01T08:35:28.814Z,44.50
2018-05-01T08:37:56.578Z,44.70
2018-05-01T08:40:24.333Z,44.80
2018-05-01T08:42:52.089Z,44.00
2018-05-01T08:45:19.922Z,44.80
2018-05-01T08:47:47.631Z,44.00
2018-05-01T08:50:15.383Z,43.00
2018-05-01T08:52:43.126Z,43.70
2018-05-01T08:55:10.872Z,43.90
2018-05-01T08:57:39.496Z,43.40
2018-05-01T09:00:08.223Z,43.40
2018-05-01T09:02:35.993Z,42.80
2018-05-01T09:05:03.743Z,42.90
2018-05-01T09:07:31.494Z,42.10
2018-05-01T09:09:59.263Z,41.40
2018-05-01T09:12:27.024Z,41.40
2018-05-01T09:14:54.763Z,40.60
2018-05-01T09:17:22.503Z,40.70
2018-05-01T09:19:50.296Z,41.10
2018-05-01T09:22:18.043Z,41.60
2018-05-01T09:24:45.828Z,40.50
2018-05-01T09:27:13.559Z,40.20
2018-05-01T09:29:41.315Z,39.00
2018-05-01T09:32:09.919Z,39.50
2018-05-01T09:34:37.676Z,39.40
2018-05-01T09:37:05.418Z,39.60
2018-05-01T09:39:34.027Z,40.30
2018-05-01T09:42:01.770Z,40.30
2018-05-01T09:44:30.386Z,42.70
2018-05-01T09:46:58.131Z,42.70
2018-05-01T09:49:25.886Z,42.60
2018-05-01T09:51:53.717Z,44.40
2018-05-01T09:54:21.940Z,44.10
2018-05-01T09:56:50.210Z,43.70
2018-05-01T09:59:18.503Z,44.20
2018-05-01T10:01:46.845Z,44.00
2018-05-01T10:04:15.195Z,44.40
2018-05-01T10:06:43.527Z,46.00
2018-05-01T10:09:11.762Z,46.50
2018-05-01T10:11:40.795Z,45.50
2018-05-01T10:14:09.071Z,45.40
2018-05-01T10:16:37.315Z,45.70
2018-05-01T10:19:06.595Z,44.50
2018-05-01T10:21:34.815Z,44.40
2018-05-01T10:24:03.107Z,44.60
2018-05-01T10:26:31.370Z,44.40
2018-05-01T10:28:59.610Z,43.60
2018-05-01T10:31:28.746Z,43.70
2018-05-01T10:33:56.996Z,43.70
2018-05-01T10:36:25.407Z,43.40
2018-05-01T10:38:53.782Z,44.30
2018-05-01T10:41:21.911Z,44.30
2018-05-01T10:43:50.915Z,44.20
2018-05-01T10:46:19.214Z,44.10
2018-05-01T10:48:47.450Z,43.90
2018-05-01T10:51:16.484Z,43.30
2018-05-01T10:53:44.723Z,43.30
2018-05-01T10:56:13.727Z,44.30
2018-05-01T10:58:42.034Z,44.20
2018-05-01T11:01:10.267Z,44.80
2018-05-01T11:03:39.279Z,45.50
2018-05-01T11:06:07.578Z,45.50
2018-05-01T11:08:35.845Z,45.90
2018-05-01T11:11:04.080Z,44.90
2018-05-01T11:13:33.158Z,45.20
2018-05-01T11:16:01.386Z,45.20
2018-05-01T11:18:29.636Z,45.20
2018-05-01T11:20:58.666Z,44.70
2018-05-01T11:23:26.930Z,44.70
2018-05-01T11:25:55.249Z,44.60
2018-05-01T11:28:23.474Z,43.20
2018-05-01T11:30:51.732Z,43.20
2018-05-01T11:33:19.997Z,43.10
2018-05-01T11:35:49.006Z,43.20
2018-05-01T11:38:17.252Z,43.20
2018-05-01T11:40:45.573Z,43.60
2018-05-01T11:43:13.822Z,44.00
2018-05-01T11:45:42.842Z,41.30
2018-05-01T11:48:11.072Z,41.30
2018-05-01T11:50:39.399Z,40.90
2018-05-01T11:53:07.714Z,41.10
2018-05-01T11:55:35.962Z,42.50
2018-05-01T11:58:04.228Z,42.30
2018-05-01T12:00:32.479Z,43.20
2018-05-01T12:03:00.727Z,43.20
2018-05-01T12:05:29.744Z,41.70
2018-05-01T12:07:58.048Z,41.70
2018-05-01T12:10:26.295Z,39.30
2018-05-01T12:12:54.531Z,38.90
2018-05-01T12:15:24.284Z,39.20
2018-05-01T12:17:52.532Z,39.20
2018-05-01T12:20:20.864Z,38.70
2018-05-01T12:22:49.112Z,39.10
2018-05-01T12:25:17.351Z,39.90
2018-05-01T12:27:45.675Z,39.10
2018-05-01T12:30:13.919Z,40.70
2018-05-01T12:32:42.922Z,39.70
2018-05-01T12:35:11.224Z,39.60
2018-05-01T12:37:39.499Z,40.90
2018-05-01T12:40:07.738Z,41.90
2018-05-01T12:42:36.746Z,42.80
2018-05-01T12:45:05.003Z,42.90
2018-05-01T12:47:34.039Z,43.20
2018-05-01T12:50:02.269Z,42.50
2018-05-01T12:52:31.306Z,42.00
2018-05-01T12:54:59.547Z,41.90
2018-05-01T12:57:28.560Z,42.50
2018-05-01T12:59:56.812Z,42.50
2018-05-01T13:02:25.824Z,42.40
2018-05-01T13:04:54.125Z,42.40
2018-05-01T13:07:22.386Z,42.60
2018-05-01T13:09:50.623Z,41.30
2018-05-01T13:12:18.944Z,41.30
2018-05-01T13:14:47.258Z,41.30
2018-05-01T13:17:15.427Z,41.70
2018-05-01T13:19:45.173Z,41.60
2018-05-01T13:22:14.183Z,42.00
2018-05-01T13:24:42.435Z,42.00
2018-05-01T13:27:11.438Z,41.10
2018-05-01T13:29:40.452Z,40.40
2018-05-01T13:32:08.692Z,40.40
2018-05-01T13:34:37.716Z,39.60
2018-05-01T13:37:05.946Z,39.60
2018-05-01T13:39:34.196Z,39.80
2018-05-01T13:42:02.427Z,39.20
2018-05-01T13:44:30.714Z,39.40
2018-05-01T13:46:58.958Z,40.40
2018-05-01T13:49:27.980Z,40.20
2018-05-01T13:51:56.313Z,40.10
2018-05-01T13:54:24.557Z,39.00
2018-05-01T13:56:52.839Z,37.80
2018-05-01T13:59:21.086Z,38.10
2018-05-01T14:01:49.326Z,37.30
2018-05-01T14:04:18.360Z,37.20
2018-05-01T14:06:46.598Z,37.80
2018-05-01T14:09:15.607Z,35.70
2018-05-01T14:11:43.950Z,35.70
2018-05-01T14:14:12.186Z,35.00
2018-05-01T14:16:40.457Z,34.50
2018-05-01T14:19:08.727Z,35.40
2018-05-01T14:21:37.008Z,35.00
2018-05-01T14:24:05.260Z,35.20
2018-05-01T14:26:33.560Z,33.30
2018-05-01T14:29:01.791Z,33.00
2018-05-01T14:31:30.830Z,31.40
2018-05-01T14:33:59.063Z,31.40
2018-05-01T14:36:28.096Z,32.00
2018-05-01T14:38:56.343Z,32.00
2018-05-01T14:41:24.603Z,33.00
2018-05-01T14:43:53.604Z,34.30
2018-05-01T14:46:22.660Z,34.30
2018-05-01T14:48:50.910Z,34.30
2018-05-01T14:51:19.183Z,33.70
2018-05-01T14:53:47.455Z,34.60
2018-05-01T14:56:15.690Z,33.30
2018-05-01T14:58:44.703Z,31.10
2018-05-01T15:01:12.957Z,31.00
2018-05-01T15:03:41.962Z,31.30
2018-05-01T15:06:10.268Z,31.20
2018-05-01T15:08:38.515Z,31.00
2018-05-01T15:11:06.806Z,31.60
2018-05-01T15:13:35.061Z,32.30
2018-05-01T15:16:04.083Z,33.00
2018-05-01T15:18:32.331Z,33.00
2018-05-01T15:21:00.629Z,33.60
2018-05-01T15:23:28.882Z,33.40
2018-05-01T15:25:57.114Z,33.10
2018-05-01T15:28:25.355Z,33.50
2018-05-01T15:30:53.598Z,33.20
2018-05-01T15:33:22.627Z,33.30
2018-05-01T15:35:50.907Z,33.20
2018-05-01T15:38:19.178Z,33.80
2018-05-01T15:40:47.456Z,34.20
2018-05-01T15:43:15.723Z,34.40
2018-05-01T15:45:43.994Z,35.10
2018-05-01T15:48:12.277Z,35.50
2018-05-01T15:50:40.551Z,36.00
2018-05-01T15:53:08.787Z,37.10
2018-05-01T15:55:37.805Z,35.60
2018-05-01T15:58:06.065Z,35.60
2018-05-01T16:00:34.571Z,35.90
2018-05-01T16:03:02.855Z,36.40
2018-05-01T16:05:31.103Z,36.40
2018-05-01T16:07:59.407Z,35.90
2018-05-01T16:10:27.662Z,35.00
2018-05-01T16:12:55.900Z,35.10
2018-05-01T16:15:24.144Z,35.80
2018-05-01T16:17:52.407Z,36.00
2018-05-01T16:20:20.699Z,36.30
2018-05-01T16:22:48.952Z,36.50
2018-05-01T16:25:17.276Z,36.50
2018-05-01T16:27:45.486Z,37.00
2018-05-01T16:30:13.859Z,36.30
2018-05-01T16:32:42.015Z,36.80
2018-05-01T16:35:11.024Z,37.20
2018-05-01T16:37:39.274Z,37.20
2018-05-01T16:40:07.518Z,37.70
2018-05-01T16:42:35.760Z,37.70
2018-05-01T16:45:04.004Z,37.60
2018-05-01T16:47:33.045Z,38.50
2018-05-01T16:50:01.270Z,38.50
2018-05-01T16:52:30.282Z,38.50
2018-05-01T16:54:58.541Z,38.40
2018-05-01T16:57:26.880Z,38.10
2018-05-01T16:59:55.109Z,38.30
2018-05-01T17:02:23.360Z,39.20
2018-05-01T17:04:51.687Z,39.00
2018-05-01T17:07:19.958Z,39.20
2018-05-01T17:09:48.204Z,39.40
2018-05-01T17:12:17.206Z,39.70
2018-05-01T17:14:45.514Z,39.60
2018-05-01T17:17:13.758Z,40.00
2018-05-01T17:19:41.996Z,40.70
2018-05-01T17:22:10.280Z,40.60
2018-05-01T17:24:38.508Z,40.40
2018-05-01T17:27:06.746Z,40.70
2018-05-01T17:29:35.787Z,41.80
2018-05-01T17:32:04.020Z,41.80
2018-05-01T17:34:33.075Z,42.10
2018-05-01T17:37:01.315Z,42.10
2018-05-01T17:39:29.611Z,42.20
2018-05-01T17:41:57.851Z,42.40
2018-05-01T17:44:26.104Z,43.10
2018-05-01T17:46:54.378Z,43.70
2018-05-01T17:49:22.596Z,44.00
2018-05-01T17:51:50.872Z,44.40
2018-05-01T17:54:19.164Z,44.80
2018-05-01T17:56:47.382Z,45.10
2018-05-01T17:59:16.416Z,45.10
2018-05-01T18:01:44.650Z,45.10
2018-05-01T18:04:13.673Z,46.30
2018-05-01T18:06:41.910Z,46.20
2018-05-01T18:09:10.956Z,46.50
2018-05-01T18:11:39.232Z,46.50
2018-05-01T18:14:07.527Z,46.60
2018-05-01T18:16:35.771Z,47.20
2018-05-01T18:19:04.059Z,47.20
2018-05-01T18:21:32.322Z,47.30
2018-05-01T18:24:00.602Z,48.40
2018-05-01T18:26:28.867Z,48.30
2018-05-01T18:28:57.154Z,48.80
2018-05-01T18:31:25.432Z,49.10
2018-05-01T18:33:53.723Z,50.90
2018-05-01T18:36:21.984Z,52.20
2018-05-01T18:38:50.258Z,52.50
2018-05-01T18:41:18.506Z,53.20
2018-05-01T18:43:46.739Z,53.90
2018-05-01T18:46:16.617Z,54.70
2018-05-01T18:48:44.867Z,54.60
2018-05-01T18:51:13.129Z,55.00
2018-05-01T18:53:42.135Z,55.60
2018-05-01T18:56:10.387Z,55.60
2018-05-01T18:58:38.722Z,55.90
2018-05-01T19:01:06.987Z,55.90
2018-05-01T19:03:35.522Z,56.30
2018-05-01T19:06:03.763Z,56.50
2018-05-01T19:08:32.007Z,57.00
2018-05-01T19:11:00.240Z,57.00
2018-05-01T19:13:28.487Z,57.30
2018-05-01T19:15:56.746Z,57.30
2018-05-01T19:18:25.023Z,57.30
2018-05-01T19:20:53.296Z,57.40
2018-05-01T19:23:21.540Z,57.50
2018-05-01T19:25:50.548Z,57.70
2018-05-01T19:28:18.788Z,57.70
2018-05-01T19:30:47.015Z,57.90
2018-05-01T19:33:15.292Z,58.00
2018-05-01T19:35:43.568Z,58.30
2018-05-01T19:38:11.862Z,58.50
2018-05-01T19:40:40.129Z,58.70
2018-05-01T19:43:08.391Z,58.90
2018-05-01T19:45:36.649Z,59.10
2018-05-01T19:48:04.887Z,59.30
2018-05-01T19:50:33.122Z,59.50
2018-05-01T19:53:01.364Z,59.60
2018-05-01T19:55:30.379Z,59.70
2018-05-01T19:57:58.586Z,59.70
2018-05-01T20:00:26.854Z,59.40
2018-05-01T20:02:55.109Z,59.50
2018-05-01T20:05:23.343Z,59.60
2018-05-01T20:07:52.391Z,59.40
2018-05-01T20:10:20.614Z,59.40
2018-05-01T20:12:49.638Z,59.70
2018-05-01T20:15:17.919Z,59.70
2018-05-01T20:17:46.155Z,59.80
2018-05-01T20:20:15.195Z,60.10
2018-05-01T20:22:43.464Z,60.10
2018-05-01T20:25:11.743Z,60.20
2018-05-01T20:27:40.024Z,60.20
2018-05-01T20:30:08.290Z,60.30
2018-05-01T20:32:36.532Z,60.30
2018-05-01T20:35:05.559Z,60.40
2018-05-01T20:37:33.790Z,60.40
2018-05-01T20:40:02.795Z,60.30
2018-05-01T20:42:31.823Z,60.70
2018-05-01T20:45:00.056Z,60.70
2018-05-01T20:47:29.049Z,60.80
2018-05-01T20:49:58.125Z,60.50
2018-05-01T20:52:26.343Z,60.50
2018-05-01T20:54:54.579Z,60.80
2018-05-01T20:57:23.667Z,61.00
2018-05-01T20:59:51.862Z,61.00
2018-05-01T21:02:20.894Z,61.40
2018-05-01T21:04:49.210Z,61.40
2018-05-01T21:07:17.536Z,61.50
2018-05-01T21:09:45.817Z,61.50
2018-05-01T21:12:14.095Z,61.90
2018-05-01T21:14:42.332Z,61.90
2018-05-01T21:17:11.346Z,62.00
2018-05-01T21:19:39.576Z,62.00
2018-05-01T21:22:07.891Z,61.70
2018-05-01T21:24:36.054Z,61.70
2018-05-01T21:27:05.079Z,62.20
2018-05-01T21:29:33.314Z,62.20
2018-05-01T21:32:02.310Z,63.20
2018-05-01T21:34:31.337Z,63.50
2018-05-01T21:36:59.611Z,63.50
2018-05-01T21:39:27.852Z,63.50
2018-05-01T21:41:56.876Z,63.60
2018-05-01T21:44:25.111Z,63.60
2018-05-01T21:46:54.114Z,64.50
2018-05-01T21:49:23.140Z,64.20
2018-05-01T21:51:51.410Z,64.20
2018-05-01T21:54:19.705Z,64.20
2018-05-01T21:56:47.923Z,64.40
2018-05-01T21:59:16.955Z,64.40
2018-05-01T22:01:45.188Z,64.80
2018-05-01T22:04:13.512Z,65.20
2018-05-01T22:06:41.750Z,65.30
2018-05-01T22:09:10.745Z,65.80
2018-05-01T22:11:39.747Z,66.20
2018-05-01T22:14:08.738Z,66.40
2018-05-01T22:16:37.759Z,66.30
2018-05-01T22:19:06.031Z,66.30
2018-05-01T22:21:34.315Z,66.30
2018-05-01T22:24:02.543Z,66.60
2018-05-01T22:26:31.671Z,67.60
2018-05-01T22:28:59.953Z,67.10
2018-05-01T22:31:28.203Z,67.30
2018-05-01T22:33:57.209Z,67.60
2018-05-01T22:36:26.210Z,67.80
2018-05-01T22:38:54.444Z,67.80
2018-05-01T22:41:22.703Z,67.80
2018-05-01T22:43:51.044Z,67.90
2018-05-01T22:46:19.303Z,68.00
2018-05-01T22:48:47.591Z,68.00
2018-05-01T22:51:15.828Z,68.20
2018-05-01T22:53:44.859Z,68.30
2018-05-01T22:56:13.139Z,68.20
2018-05-01T22:58:41.391Z,68.50
2018-05-01T23:01:10.402Z,68.40
2018-05-01T23:03:38.678Z,68.40
2018-05-01T23:06:06.949Z,68.50
2018-05-01T23:08:35.237Z,69.50
2018-05-01T23:11:03.467Z,71.90
2018-05-01T23:13:32.494Z,72.30
2018-05-01T23:16:00.722Z,72.20
2018-05-01T23:18:29.739Z,73.00
2018-05-01T23:20:58.761Z,72.90
2018-05-01T23:23:27.007Z,72.90
2018-05-01T23:25:56.004Z,73.30
2018-05-01T23:28:25.020Z,72.90
2018-05-01T23:30:53.307Z,72.90
2018-05-01T23:33:21.538Z,73.10
2018-05-01T23:35:50.540Z,73.80
2018-05-01T23:38:19.670Z,74.00
2018-05-01T23:40:47.895Z,73.90
2018-05-01T23:43:16.922Z,74.00
2018-05-01T23:45:45.159Z,74.00
2018-05-01T23:48:14.156Z,73.60
2018-05-01T23:50:43.158Z,75.00
2018-05-01T23:53:12.160Z,75.00
2018-05-01T23:55:40.417Z,75.00
2018-05-01T23:58:08.635Z,74.60
